sensor_id;sensor_type;location;lat;lon;timestamp;P1;P2;P0
76049;PMS7003;64967;50.234;19.224;2023-04-03T00:00:48;14.33;12.00;9.00
76049;PMS7003;64967;50.234;19.224;2023-04-03T00:03:16;14.25;14.00;10.00
76049;PMS7003;64967;50.234;19.224;2023-04-03T00:05:48;11.00;10.00;9.00
76049;PMS7003;64967;50.234;19.224;2023-04-03T00:08:36;14.50;11.75;9.00
76049;PMS7003;64967;50.234;19.224;2023-04-03T00:11:20;9.25;8.75;7.25
76049;PMS7003;64967;50.234;19.224;2023-04-03T00:14:04;9.00;9.00;8.00
76049;PMS7003;64967;50.234;19.224;2023-04-03T00:17:03;15.25;14.25;10.00
76049;PMS7003;64967;50.234;19.224;2023-04-03T00:19:48;18.75;16.00;10.75
76049;PMS7003;64967;50.234;19.224;2023-04-03T00:22:33;14.00;11.50;7.50
76049;PMS7003;64967;50.234;19.224;2023-04-03T00:25:01;10.00;10.00;8.00
76049;PMS7003;64967;50.234;19.224;2023-04-03T00:27:27;7.25;6.50;6.00
76049;PMS7003;64967;50.234;19.224;2023-04-03T00:29:54;16.67;14.00;10.67
76049;PMS7003;64967;50.234;19.224;2023-04-03T00:32:22;16.75;13.25;9.50
76049;PMS7003;64967;50.234;19.224;2023-04-03T00:34:49;16.25;12.75;10.00
76049;PMS7003;64967;50.234;19.224;2023-04-03T00:37:16;15.50;13.25;9.00
76049;PMS7003;64967;50.234;19.224;2023-04-03T00:39:43;10.50;9.25;8.00
76049;PMS7003;64967;50.234;19.224;2023-04-03T00:42:10;8.75;8.00;6.00
76049;PMS7003;64967;50.234;19.224;2023-04-03T00:47:05;11.25;9.25;7.75
76049;PMS7003;64967;50.234;19.224;2023-04-03T00:49:34;10.25;10.00;8.25
76049;PMS7003;64967;50.234;19.224;2023-04-03T00:52:04;8.50;7.25;5.75
76049;PMS7003;64967;50.234;19.224;2023-04-03T00:54:36;6.00;6.00;5.00
76049;PMS7003;64967;50.234;19.224;2023-04-03T00:57:04;9.00;5.50;3.50
76049;PMS7003;64967;50.234;19.224;2023-04-03T00:59:35;9.50;8.25;6.00
76049;PMS7003;64967;50.234;19.224;2023-04-03T01:02:06;9.25;9.25;7.00
76049;PMS7003;64967;50.234;19.224;2023-04-03T01:04:35;10.00;8.50;6.00
76049;PMS7003;64967;50.234;19.224;2023-04-03T01:07:17;9.25;9.00;8.00
76049;PMS7003;64967;50.234;19.224;2023-04-03T01:10:17;9.00;8.75;6.00
76049;PMS7003;64967;50.234;19.224;2023-04-03T01:13:07;8.00;6.50;5.00
76049;PMS7003;64967;50.234;19.224;2023-04-03T01:16:09;11.25;9.00;6.00
76049;PMS7003;64967;50.234;19.224;2023-04-03T01:18:50;13.00;9.75;9.00
76049;PMS7003;64967;50.234;19.224;2023-04-03T01:27:00;13.75;13.75;12.00
76049;PMS7003;64967;50.234;19.224;2023-04-03T01:29:30;15.25;15.00;12.75
76049;PMS7003;64967;50.234;19.224;2023-04-03T01:31:58;20.00;16.00;12.50
76049;PMS7003;64967;50.234;19.224;2023-04-03T01:34:28;16.00;14.00;12.00
76049;PMS7003;64967;50.234;19.224;2023-04-03T01:36:56;15.50;13.00;11.00
76049;PMS7003;64967;50.234;19.224;2023-04-03T01:39:23;15.75;14.75;10.50
76049;PMS7003;64967;50.234;19.224;2023-04-03T01:41:50;17.75;15.25;11.75
76049;PMS7003;64967;50.234;19.224;2023-04-03T01:44:17;13.67;12.00;8.00
76049;PMS7003;64967;50.234;19.224;2023-04-03T01:46:44;21.33;18.33;12.67
76049;PMS7003;64967;50.234;19.224;2023-04-03T01:49:11;23.25;16.00;12.00
76049;PMS7003;64967;50.234;19.224;2023-04-03T01:51:38;16.75;13.00;12.00
76049;PMS7003;64967;50.234;19.224;2023-04-03T01:54:05;17.00;14.75;12.00
76049;PMS7003;64967;50.234;19.224;2023-04-03T01:56:32;20.25;13.50;11.00
76049;PMS7003;64967;50.234;19.224;2023-04-03T01:58:59;13.33;13.00;10.00
76049;PMS7003;64967;50.234;19.224;2023-04-03T02:01:26;16.75;14.50;12.00
76049;PMS7003;64967;50.234;19.224;2023-04-03T02:03:53;20.50;16.50;13.00
76049;PMS7003;64967;50.234;19.224;2023-04-03T02:06:20;20.50;17.50;13.00
76049;PMS7003;64967;50.234;19.224;2023-04-03T02:08:47;24.00;21.75;12.75
76049;PMS7003;64967;50.234;19.224;2023-04-03T02:11:14;27.67;21.00;16.00
76049;PMS7003;64967;50.234;19.224;2023-04-03T02:13:41;20.00;18.33;13.67
76049;PMS7003;64967;50.234;19.224;2023-04-03T02:16:09;22.33;19.67;15.33
76049;PMS7003;64967;50.234;19.224;2023-04-03T02:18:37;19.33;17.00;13.00
76049;PMS7003;64967;50.234;19.224;2023-04-03T02:21:04;20.00;19.00;13.00
76049;PMS7003;64967;50.234;19.224;2023-04-03T02:23:32;24.33;17.67;14.67
76049;PMS7003;64967;50.234;19.224;2023-04-03T02:26:03;23.00;21.00;15.00
76049;PMS7003;64967;50.234;19.224;2023-04-03T02:28:32;21.00;20.00;15.00
76049;PMS7003;64967;50.234;19.224;2023-04-03T02:30:59;23.00;21.33;14.67
76049;PMS7003;64967;50.234;19.224;2023-04-03T02:33:27;19.33;17.67;14.00
76049;PMS7003;64967;50.234;19.224;2023-04-03T02:35:54;19.33;16.67;12.00
76049;PMS7003;64967;50.234;19.224;2023-04-03T02:38:22;19.00;16.00;13.00
76049;PMS7003;64967;50.234;19.224;2023-04-03T02:40:50;12.50;12.00;10.25
76049;PMS7003;64967;50.234;19.224;2023-04-03T02:43:17;14.33;11.00;9.67
76049;PMS7003;64967;50.234;19.224;2023-04-03T02:45:44;20.33;17.00;12.33
76049;PMS7003;64967;50.234;19.224;2023-04-03T02:48:11;17.25;15.50;12.25
76049;PMS7003;64967;50.234;19.224;2023-04-03T02:50:38;16.00;13.00;11.67
76049;PMS7003;64967;50.234;19.224;2023-04-03T02:53:05;13.00;12.00;9.00
76049;PMS7003;64967;50.234;19.224;2023-04-03T02:55:32;18.33;17.33;13.00
76049;PMS7003;64967;50.234;19.224;2023-04-03T02:57:59;16.00;15.00;10.67
76049;PMS7003;64967;50.234;19.224;2023-04-03T03:00:26;16.00;15.67;13.00
76049;PMS7003;64967;50.234;19.224;2023-04-03T03:02:53;17.67;15.67;12.00
76049;PMS7003;64967;50.234;19.224;2023-04-03T03:05:20;16.00;13.00;11.67
76049;PMS7003;64967;50.234;19.224;2023-04-03T03:07:48;13.67;12.67;9.67
76049;PMS7003;64967;50.234;19.224;2023-04-03T03:10:15;15.33;13.33;9.67
76049;PMS7003;64967;50.234;19.224;2023-04-03T03:12:42;13.25;12.25;9.00
76049;PMS7003;64967;50.234;19.224;2023-04-03T03:15:09;11.50;11.00;9.00
76049;PMS7003;64967;50.234;19.224;2023-04-03T03:17:37;14.33;13.00;11.00
76049;PMS7003;64967;50.234;19.224;2023-04-03T03:20:04;12.75;12.00;9.25
76049;PMS7003;64967;50.234;19.224;2023-04-03T03:22:33;16.00;11.00;9.00
76049;PMS7003;64967;50.234;19.224;2023-04-03T03:25:01;13.50;12.00;8.75
76049;PMS7003;64967;50.234;19.224;2023-04-03T03:27:29;13.00;12.00;9.00
76049;PMS7003;64967;50.234;19.224;2023-04-03T03:29:56;4.67;4.67;2.00
76049;PMS7003;64967;50.234;19.224;2023-04-03T03:32:23;15.00;12.00;8.75
76049;PMS7003;64967;50.234;19.224;2023-04-03T03:34:50;19.50;15.00;9.75
76049;PMS7003;64967;50.234;19.224;2023-04-03T03:37:17;12.50;11.25;9.00
76049;PMS7003;64967;50.234;19.224;2023-04-03T03:39:44;15.00;9.00;8.00
76049;PMS7003;64967;50.234;19.224;2023-04-03T03:42:11;18.50;13.25;10.25
76049;PMS7003;64967;50.234;19.224;2023-04-03T03:44:38;15.00;13.00;10.50
76049;PMS7003;64967;50.234;19.224;2023-04-03T03:47:05;16.00;13.00;10.33
76049;PMS7003;64967;50.234;19.224;2023-04-03T03:49:32;20.67;15.33;11.00
76049;PMS7003;64967;50.234;19.224;2023-04-03T03:51:59;15.67;15.33;10.00
76049;PMS7003;64967;50.234;19.224;2023-04-03T03:54:26;18.50;16.00;11.75
76049;PMS7003;64967;50.234;19.224;2023-04-03T03:56:53;16.67;15.00;12.67
76049;PMS7003;64967;50.234;19.224;2023-04-03T03:59:20;17.33;13.00;11.00
76049;PMS7003;64967;50.234;19.224;2023-04-03T04:01:47;16.33;13.67;10.00
76049;PMS7003;64967;50.234;19.224;2023-04-03T04:04:14;11.00;9.00;8.00
76049;PMS7003;64967;50.234;19.224;2023-04-03T04:06:42;18.67;15.67;12.00
76049;PMS7003;64967;50.234;19.224;2023-04-03T04:09:09;16.00;11.50;8.50
76049;PMS7003;64967;50.234;19.224;2023-04-03T04:11:36;13.67;12.00;11.00
76049;PMS7003;64967;50.234;19.224;2023-04-03T04:14:03;15.67;12.33;11.00
76049;PMS7003;64967;50.234;19.224;2023-04-03T04:16:30;18.00;15.00;12.67
76049;PMS7003;64967;50.234;19.224;2023-04-03T04:18:57;17.67;12.67;9.00
76049;PMS7003;64967;50.234;19.224;2023-04-03T04:21:24;11.33;9.00;6.00
76049;PMS7003;64967;50.234;19.224;2023-04-03T04:23:52;14.33;11.00;8.00
76049;PMS7003;64967;50.234;19.224;2023-04-03T04:26:19;13.67;12.00;9.00
76049;PMS7003;64967;50.234;19.224;2023-04-03T04:28:46;15.00;12.00;9.00
76049;PMS7003;64967;50.234;19.224;2023-04-03T04:31:13;10.00;10.00;8.00
76049;PMS7003;64967;50.234;19.224;2023-04-03T04:33:40;12.00;11.33;9.00
76049;PMS7003;64967;50.234;19.224;2023-04-03T04:36:07;11.25;9.50;8.00
76049;PMS7003;64967;50.234;19.224;2023-04-03T04:38:35;12.50;10.00;7.50
76049;PMS7003;64967;50.234;19.224;2023-04-03T04:41:02;10.25;8.50;8.00
76049;PMS7003;64967;50.234;19.224;2023-04-03T04:43:29;13.00;9.00;8.00
76049;PMS7003;64967;50.234;19.224;2023-04-03T04:46:06;11.25;8.75;7.00
76049;PMS7003;64967;50.234;19.224;2023-04-03T04:48:35;9.00;9.00;6.00
76049;PMS7003;64967;50.234;19.224;2023-04-03T04:51:03;9.33;9.00;6.67
76049;PMS7003;64967;50.234;19.224;2023-04-03T04:53:30;10.50;8.25;7.00
76049;PMS7003;64967;50.234;19.224;2023-04-03T04:55:57;7.00;7.00;5.00
76049;PMS7003;64967;50.234;19.224;2023-04-03T04:58:24;9.00;6.00;5.50
76049;PMS7003;64967;50.234;19.224;2023-04-03T05:01:05;10.75;7.75;5.00
76049;PMS7003;64967;50.234;19.224;2023-04-03T05:03:34;12.00;8.00;5.00
76049;PMS7003;64967;50.234;19.224;2023-04-03T05:06:01;8.00;6.00;5.75
76049;PMS7003;64967;50.234;19.224;2023-04-03T05:08:28;7.50;7.50;6.25
76049;PMS7003;64967;50.234;19.224;2023-04-03T05:10:55;7.00;5.75;5.00
76049;PMS7003;64967;50.234;19.224;2023-04-03T05:13:22;5.75;5.75;5.00
76049;PMS7003;64967;50.234;19.224;2023-04-03T05:15:49;7.75;5.50;3.50
76049;PMS7003;64967;50.234;19.224;2023-04-03T05:18:16;11.50;7.25;5.25
76049;PMS7003;64967;50.234;19.224;2023-04-03T05:20:43;8.75;5.25;4.00
76049;PMS7003;64967;50.234;19.224;2023-04-03T05:23:10;9.00;7.25;5.00
76049;PMS7003;64967;50.234;19.224;2023-04-03T05:25:38;5.50;5.50;5.00
76049;PMS7003;64967;50.234;19.224;2023-04-03T05:28:05;5.50;5.50;4.50
76049;PMS7003;64967;50.234;19.224;2023-04-03T05:30:33;6.25;5.00;4.75
76049;PMS7003;64967;50.234;19.224;2023-04-03T05:33:00;5.00;5.00;4.00
76049;PMS7003;64967;50.234;19.224;2023-04-03T05:35:27;8.00;7.50;5.75
76049;PMS7003;64967;50.234;19.224;2023-04-03T05:37:54;5.75;5.75;4.25
76049;PMS7003;64967;50.234;19.224;2023-04-03T05:40:21;5.00;4.00;3.50
76049;PMS7003;64967;50.234;19.224;2023-04-03T05:42:48;9.50;5.25;4.50
76049;PMS7003;64967;50.234;19.224;2023-04-03T05:45:16;7.25;4.50;4.00
76049;PMS7003;64967;50.234;19.224;2023-04-03T05:47:43;9.00;5.00;4.00
76049;PMS7003;64967;50.234;19.224;2023-04-03T05:50:10;6.50;6.00;5.00
76049;PMS7003;64967;50.234;19.224;2023-04-03T05:52:37;5.50;5.50;5.00
76049;PMS7003;64967;50.234;19.224;2023-04-03T05:55:07;9.00;5.75;4.75
76049;PMS7003;64967;50.234;19.224;2023-04-03T05:57:34;8.00;6.33;5.00
76049;PMS7003;64967;50.234;19.224;2023-04-03T06:00:03;5.67;4.00;2.67
76049;PMS7003;64967;50.234;19.224;2023-04-03T06:02:34;5.67;5.67;5.00
76049;PMS7003;64967;50.234;19.224;2023-04-03T06:05:02;7.00;5.00;4.50
76049;PMS7003;64967;50.234;19.224;2023-04-03T06:07:30;7.00;7.00;5.75
76049;PMS7003;64967;50.234;19.224;2023-04-03T06:09:57;7.75;6.00;5.00
76049;PMS7003;64967;50.234;19.224;2023-04-03T06:12:24;8.00;8.00;5.75
76049;PMS7003;64967;50.234;19.224;2023-04-03T06:14:52;8.50;5.75;3.50
76049;PMS7003;64967;50.234;19.224;2023-04-03T06:17:19;6.00;5.75;4.00
76049;PMS7003;64967;50.234;19.224;2023-04-03T06:19:46;5.75;5.00;4.50
76049;PMS7003;64967;50.234;19.224;2023-04-03T06:22:14;8.00;6.00;5.00
76049;PMS7003;64967;50.234;19.224;2023-04-03T06:24:41;9.50;8.00;6.00
76049;PMS7003;64967;50.234;19.224;2023-04-03T06:27:10;10.00;9.00;5.00
76049;PMS7003;64967;50.234;19.224;2023-04-03T06:29:37;5.75;5.75;5.00
76049;PMS7003;64967;50.234;19.224;2023-04-03T06:32:05;5.00;5.00;5.00
76049;PMS7003;64967;50.234;19.224;2023-04-03T06:34:32;6.50;4.75;4.00
76049;PMS7003;64967;50.234;19.224;2023-04-03T06:37:00;4.00;4.00;2.50
76049;PMS7003;64967;50.234;19.224;2023-04-03T06:39:27;4.75;1.00;1.00
76049;PMS7003;64967;50.234;19.224;2023-04-03T06:41:54;9.25;5.50;3.00
76049;PMS7003;64967;50.234;19.224;2023-04-03T06:44:21;8.00;4.75;3.50
76049;PMS7003;64967;50.234;19.224;2023-04-03T06:46:48;4.00;2.00;1.00
76049;PMS7003;64967;50.234;19.224;2023-04-03T06:49:15;5.00;1.75;1.25
76049;PMS7003;64967;50.234;19.224;2023-04-03T06:51:42;5.25;2.00;2.00
76049;PMS7003;64967;50.234;19.224;2023-04-03T06:54:09;5.50;4.00;2.50
76049;PMS7003;64967;50.234;19.224;2023-04-03T06:56:36;4.75;4.00;3.50
76049;PMS7003;64967;50.234;19.224;2023-04-03T06:59:03;5.75;5.00;4.50
76049;PMS7003;64967;50.234;19.224;2023-04-03T07:01:31;4.00;2.00;2.00
76049;PMS7003;64967;50.234;19.224;2023-04-03T07:03:58;4.00;4.00;2.00
76049;PMS7003;64967;50.234;19.224;2023-04-03T07:06:25;2.50;2.50;2.50
76049;PMS7003;64967;50.234;19.224;2023-04-03T07:08:57;5.00;4.00;2.00
76049;PMS7003;64967;50.234;19.224;2023-04-03T07:11:24;4.00;2.00;1.75
76049;PMS7003;64967;50.234;19.224;2023-04-03T07:13:52;4.00;2.00;2.00
76049;PMS7003;64967;50.234;19.224;2023-04-03T07:16:19;3.00;2.00;2.00
76049;PMS7003;64967;50.234;19.224;2023-04-03T07:18:47;7.00;3.50;1.75
76049;PMS7003;64967;50.234;19.224;2023-04-03T07:21:14;3.50;2.00;2.00
76049;PMS7003;64967;50.234;19.224;2023-04-03T07:23:41;5.00;4.00;3.00
76049;PMS7003;64967;50.234;19.224;2023-04-03T07:26:08;4.75;4.00;2.50
76049;PMS7003;64967;50.234;19.224;2023-04-03T07:28:35;10.00;6.00;5.00
76049;PMS7003;64967;50.234;19.224;2023-04-03T07:31:04;5.25;4.00;3.00
76049;PMS7003;64967;50.234;19.224;2023-04-03T07:33:35;6.00;4.50;4.00
76049;PMS7003;64967;50.234;19.224;2023-04-03T07:36:04;6.00;5.25;4.00
76049;PMS7003;64967;50.234;19.224;2023-04-03T07:38:33;3.50;2.00;2.00
76049;PMS7003;64967;50.234;19.224;2023-04-03T07:41:02;8.75;5.50;4.25
76049;PMS7003;64967;50.234;19.224;2023-04-03T07:43:29;5.00;2.00;2.00
76049;PMS7003;64967;50.234;19.224;2023-04-03T07:45:56;5.00;4.00;3.50
76049;PMS7003;64967;50.234;19.224;2023-04-03T07:48:24;5.75;4.00;2.00
76049;PMS7003;64967;50.234;19.224;2023-04-03T07:50:52;2.00;2.00;2.00
76049;PMS7003;64967;50.234;19.224;2023-04-03T07:53:20;3.00;1.75;1.00
76049;PMS7003;64967;50.234;19.224;2023-04-03T07:55:47;3.50;2.50;2.00
76049;PMS7003;64967;50.234;19.224;2023-04-03T07:58:16;4.25;4.00;2.50
76049;PMS7003;64967;50.234;19.224;2023-04-03T08:00:44;7.00;5.75;4.00
76049;PMS7003;64967;50.234;19.224;2023-04-03T08:03:12;4.00;4.00;3.00
76049;PMS7003;64967;50.234;19.224;2023-04-03T08:05:40;5.50;5.00;4.00
76049;PMS7003;64967;50.234;19.224;2023-04-03T08:08:09;7.75;4.00;2.00
76049;PMS7003;64967;50.234;19.224;2023-04-03T08:10:38;6.00;5.00;4.00
76049;PMS7003;64967;50.234;19.224;2023-04-03T08:13:05;7.50;4.75;2.00
76049;PMS7003;64967;50.234;19.224;2023-04-03T08:15:33;6.00;5.00;2.00
76049;PMS7003;64967;50.234;19.224;2023-04-03T08:18:01;5.75;5.00;4.00
76049;PMS7003;64967;50.234;19.224;2023-04-03T08:20:28;8.50;5.00;4.75
76049;PMS7003;64967;50.234;19.224;2023-04-03T08:22:55;4.00;2.00;2.00
76049;PMS7003;64967;50.234;19.224;2023-04-03T08:25:23;6.00;4.00;4.00
76049;PMS7003;64967;50.234;19.224;2023-04-03T08:27:51;6.00;3.75;2.75
76049;PMS7003;64967;50.234;19.224;2023-04-03T08:30:18;4.50;2.00;2.00
76049;PMS7003;64967;50.234;19.224;2023-04-03T08:32:46;6.00;5.00;4.00
76049;PMS7003;64967;50.234;19.224;2023-04-03T08:35:13;5.00;4.00;4.00
76049;PMS7003;64967;50.234;19.224;2023-04-03T08:37:40;3.50;2.50;2.25
76049;PMS7003;64967;50.234;19.224;2023-04-03T08:40:13;5.00;4.00;4.00
76049;PMS7003;64967;50.234;19.224;2023-04-03T08:42:48;2.75;2.00;2.00
76049;PMS7003;64967;50.234;19.224;2023-04-03T08:50:40;3.75;2.00;1.00
76049;PMS7003;64967;50.234;19.224;2023-04-03T08:53:15;2.75;2.00;1.00
76049;PMS7003;64967;50.234;19.224;2023-04-03T08:55:49;3.50;1.75;1.00
76049;PMS7003;64967;50.234;19.224;2023-04-03T09:00:51;2.00;2.00;2.00
76049;PMS7003;64967;50.234;19.224;2023-04-03T09:03:33;4.50;3.00;2.00
76049;PMS7003;64967;50.234;19.224;2023-04-03T09:06:48;3.00;2.00;2.00
76049;PMS7003;64967;50.234;19.224;2023-04-03T09:09:06;4.00;2.50;2.00
76049;PMS7003;64967;50.234;19.224;2023-04-03T09:14:37;1.50;1.50;1.00
76049;PMS7003;64967;50.234;19.224;2023-04-03T09:20:02;2.00;1.50;1.00
76049;PMS7003;64967;50.234;19.224;2023-04-03T09:22:40;2.50;2.25;2.00
76049;PMS7003;64967;50.234;19.224;2023-04-03T09:25:21;6.00;6.00;3.00
76049;PMS7003;64967;50.234;19.224;2023-04-03T09:27:55;4.25;4.00;2.75
76049;PMS7003;64967;50.234;19.224;2023-04-03T09:30:24;2.00;2.00;1.00
76049;PMS7003;64967;50.234;19.224;2023-04-03T09:32:53;3.50;3.00;2.00
76049;PMS7003;64967;50.234;19.224;2023-04-03T09:35:27;7.75;3.00;2.75
76049;PMS7003;64967;50.234;19.224;2023-04-03T09:40:40;4.00;3.00;2.00
76049;PMS7003;64967;50.234;19.224;2023-04-03T09:45:42;8.25;6.50;5.00
76049;PMS7003;64967;50.234;19.224;2023-04-03T09:55:55;12.00;8.50;5.50
76049;PMS7003;64967;50.234;19.224;2023-04-03T09:58:26;7.00;6.00;5.25
76049;PMS7003;64967;50.234;19.224;2023-04-03T10:06:36;5.00;3.50;2.50
76049;PMS7003;64967;50.234;19.224;2023-04-03T10:26:06;3.50;3.00;3.00
76049;PMS7003;64967;50.234;19.224;2023-04-03T10:34:23;1.00;1.00;1.00
76049;PMS7003;64967;50.234;19.224;2023-04-03T10:49:03;5.25;5.00;3.00
76049;PMS7003;64967;50.234;19.224;2023-04-03T10:51:38;5.75;2.50;2.25
76049;PMS7003;64967;50.234;19.224;2023-04-03T10:54:19;3.00;2.00;1.75
76049;PMS7003;64967;50.234;19.224;2023-04-03T10:56:51;2.25;2.00;1.00
76049;PMS7003;64967;50.234;19.224;2023-04-03T10:59:50;1.00;1.00;1.00
76049;PMS7003;64967;50.234;19.224;2023-04-03T11:05:15;1.00;0.75;0.25
76049;PMS7003;64967;50.234;19.224;2023-04-03T11:07:47;1.00;1.00;1.00
76049;PMS7003;64967;50.234;19.224;2023-04-03T11:10:31;2.00;1.00;1.00
76049;PMS7003;64967;50.234;19.224;2023-04-03T11:15:42;2.00;1.75;1.00
76049;PMS7003;64967;50.234;19.224;2023-04-03T11:18:22;2.50;1.00;1.00
76049;PMS7003;64967;50.234;19.224;2023-04-03T11:21:37;3.00;2.25;1.50
76049;PMS7003;64967;50.234;19.224;2023-04-03T11:23:48;1.75;1.75;1.00
76049;PMS7003;64967;50.234;19.224;2023-04-03T11:26:18;2.50;2.00;2.00
76049;PMS7003;64967;50.234;19.224;2023-04-03T11:28:52;2.75;1.25;1.00
76049;PMS7003;64967;50.234;19.224;2023-04-03T11:31:42;3.00;2.00;1.75
76049;PMS7003;64967;50.234;19.224;2023-04-03T11:34:36;5.00;2.50;2.00
76049;PMS7003;64967;50.234;19.224;2023-04-03T11:39:54;4.50;4.50;3.00
76049;PMS7003;64967;50.234;19.224;2023-04-03T11:45:24;5.75;5.00;4.00
76049;PMS7003;64967;50.234;19.224;2023-04-03T11:48:41;3.50;3.50;2.00
76049;PMS7003;64967;50.234;19.224;2023-04-03T11:53:33;6.00;2.25;2.00
76049;PMS7003;64967;50.234;19.224;2023-04-03T11:56:02;3.50;2.25;1.75
76049;PMS7003;64967;50.234;19.224;2023-04-03T11:58:34;2.75;1.00;1.00
76049;PMS7003;64967;50.234;19.224;2023-04-03T12:03:55;1.00;1.00;1.00
76049;PMS7003;64967;50.234;19.224;2023-04-03T12:09:02;0.75;0.25;0.00
76049;PMS7003;64967;50.234;19.224;2023-04-03T12:11:48;4.00;2.00;1.50
76049;PMS7003;64967;50.234;19.224;2023-04-03T12:14:15;2.25;2.25;2.00
76049;PMS7003;64967;50.234;19.224;2023-04-03T12:16:46;3.00;2.00;2.00
76049;PMS7003;64967;50.234;19.224;2023-04-03T12:32:05;4.50;3.50;2.00
76049;PMS7003;64967;50.234;19.224;2023-04-03T12:40:15;2.75;2.75;2.00
76049;PMS7003;64967;50.234;19.224;2023-04-03T12:46:09;2.50;1.75;1.00
76049;PMS7003;64967;50.234;19.224;2023-04-03T12:48:32;2.00;2.00;1.25
76049;PMS7003;64967;50.234;19.224;2023-04-03T12:51:04;1.25;1.25;1.00
76049;PMS7003;64967;50.234;19.224;2023-04-03T12:53:33;5.00;3.00;2.00
76049;PMS7003;64967;50.234;19.224;2023-04-03T12:58:52;4.50;4.50;3.00
76049;PMS7003;64967;50.234;19.224;2023-04-03T13:01:22;3.00;2.75;2.00
76049;PMS7003;64967;50.234;19.224;2023-04-03T13:03:56;3.00;3.00;2.00
76049;PMS7003;64967;50.234;19.224;2023-04-03T13:06:30;4.50;3.00;2.50
76049;PMS7003;64967;50.234;19.224;2023-04-03T13:09:01;2.00;1.00;1.00
76049;PMS7003;64967;50.234;19.224;2023-04-03T13:11:33;4.00;3.00;2.00
76049;PMS7003;64967;50.234;19.224;2023-04-03T13:14:12;2.25;1.50;0.75
76049;PMS7003;64967;50.234;19.224;2023-04-03T13:16:52;5.75;4.25;3.00
76049;PMS7003;64967;50.234;19.224;2023-04-03T13:19:22;2.25;2.25;1.50
76049;PMS7003;64967;50.234;19.224;2023-04-03T13:21:57;3.75;3.75;3.00
76049;PMS7003;64967;50.234;19.224;2023-04-03T13:24:28;2.50;2.00;2.00
76049;PMS7003;64967;50.234;19.224;2023-04-03T13:26:57;2.00;1.75;1.50
76049;PMS7003;64967;50.234;19.224;2023-04-03T13:29:27;3.50;2.00;2.00
76049;PMS7003;64967;50.234;19.224;2023-04-03T13:31:58;3.00;2.25;2.00
76049;PMS7003;64967;50.234;19.224;2023-04-03T13:34:28;3.75;2.00;2.00
76049;PMS7003;64967;50.234;19.224;2023-04-03T13:37:02;5.00;2.50;2.00
76049;PMS7003;64967;50.234;19.224;2023-04-03T13:39:34;5.75;3.00;2.75
76049;PMS7003;64967;50.234;19.224;2023-04-03T13:42:17;3.50;3.50;3.00
76049;PMS7003;64967;50.234;19.224;2023-04-03T13:45:06;2.00;2.00;2.00
76049;PMS7003;64967;50.234;19.224;2023-04-03T13:47:44;2.25;2.25;2.00
76049;PMS7003;64967;50.234;19.224;2023-04-03T13:50:22;3.50;3.00;2.00
76049;PMS7003;64967;50.234;19.224;2023-04-03T13:53:00;2.25;2.25;2.00
76049;PMS7003;64967;50.234;19.224;2023-04-03T13:55:31;2.25;1.00;1.00
76049;PMS7003;64967;50.234;19.224;2023-04-03T13:58:03;2.00;2.00;2.00
76049;PMS7003;64967;50.234;19.224;2023-04-03T14:01:01;1.25;1.00;1.00
76049;PMS7003;64967;50.234;19.224;2023-04-03T14:03:59;3.00;3.00;3.00
76049;PMS7003;64967;50.234;19.224;2023-04-03T14:06:36;3.00;3.00;2.75
76049;PMS7003;64967;50.234;19.224;2023-04-03T14:09:03;4.00;4.00;4.00
76049;PMS7003;64967;50.234;19.224;2023-04-03T14:11:30;6.00;4.00;3.00
76049;PMS7003;64967;50.234;19.224;2023-04-03T14:13:58;4.00;3.25;3.00
76049;PMS7003;64967;50.234;19.224;2023-04-03T14:16:32;3.25;3.25;3.00
76049;PMS7003;64967;50.234;19.224;2023-04-03T14:19:03;6.00;4.25;3.00
76049;PMS7003;64967;50.234;19.224;2023-04-03T14:21:30;2.00;2.00;2.00
76049;PMS7003;64967;50.234;19.224;2023-04-03T14:23:57;3.00;3.00;2.00
76049;PMS7003;64967;50.234;19.224;2023-04-03T14:26:24;2.75;2.75;2.00
76049;PMS7003;64967;50.234;19.224;2023-04-03T14:28:54;6.25;4.00;4.00
76049;PMS7003;64967;50.234;19.224;2023-04-03T14:31:22;3.75;3.00;2.00
76049;PMS7003;64967;50.234;19.224;2023-04-03T14:33:50;6.00;4.50;4.00
76049;PMS7003;64967;50.234;19.224;2023-04-03T14:36:18;6.00;4.00;3.50
76049;PMS7003;64967;50.234;19.224;2023-04-03T14:38:49;4.00;3.00;2.00
76049;PMS7003;64967;50.234;19.224;2023-04-03T14:41:18;5.75;4.00;3.75
76049;PMS7003;64967;50.234;19.224;2023-04-03T14:43:47;3.50;3.25;3.00
76049;PMS7003;64967;50.234;19.224;2023-04-03T14:49:22;5.50;5.25;5.00
76049;PMS7003;64967;50.234;19.224;2023-04-03T14:51:52;6.75;5.75;5.00
76049;PMS7003;64967;50.234;19.224;2023-04-03T14:54:20;6.00;4.25;3.25
76049;PMS7003;64967;50.234;19.224;2023-04-03T14:56:52;6.00;5.25;3.50
76049;PMS7003;64967;50.234;19.224;2023-04-03T14:59:21;5.50;5.50;3.75
76049;PMS7003;64967;50.234;19.224;2023-04-03T15:01:49;6.50;5.00;3.75
76049;PMS7003;64967;50.234;19.224;2023-04-03T15:04:17;7.00;5.00;4.00
76049;PMS7003;64967;50.234;19.224;2023-04-03T15:06:46;4.25;4.25;3.00
76049;PMS7003;64967;50.234;19.224;2023-04-03T15:09:18;2.00;1.25;1.00
76049;PMS7003;64967;50.234;19.224;2023-04-03T15:11:51;1.00;1.00;0.25
76049;PMS7003;64967;50.234;19.224;2023-04-03T15:14:19;6.50;3.00;3.00
76049;PMS7003;64967;50.234;19.224;2023-04-03T15:17:06;5.00;3.50;3.00
76049;PMS7003;64967;50.234;19.224;2023-04-03T15:19:41;4.50;3.00;3.00
76049;PMS7003;64967;50.234;19.224;2023-04-03T15:22:14;5.50;3.00;2.75
76049;PMS7003;64967;50.234;19.224;2023-04-03T15:24:45;5.00;5.00;3.00
76049;PMS7003;64967;50.234;19.224;2023-04-03T15:27:12;6.00;5.00;4.00
76049;PMS7003;64967;50.234;19.224;2023-04-03T15:29:42;6.50;5.00;4.50
76049;PMS7003;64967;50.234;19.224;2023-04-03T15:32:10;6.00;5.00;3.00
76049;PMS7003;64967;50.234;19.224;2023-04-03T15:34:39;3.00;3.00;2.00
76049;PMS7003;64967;50.234;19.224;2023-04-03T15:37:06;10.75;6.25;4.00
76049;PMS7003;64967;50.234;19.224;2023-04-03T15:39:33;4.50;4.50;3.00
76049;PMS7003;64967;50.234;19.224;2023-04-03T15:42:00;3.00;3.00;2.75
76049;PMS7003;64967;50.234;19.224;2023-04-03T15:44:35;6.00;5.00;3.00
76049;PMS7003;64967;50.234;19.224;2023-04-03T15:47:02;5.50;4.00;3.00
76049;PMS7003;64967;50.234;19.224;2023-04-03T15:49:30;4.00;2.75;2.00
76049;PMS7003;64967;50.234;19.224;2023-04-03T15:55:25;2.50;2.00;2.00
76049;PMS7003;64967;50.234;19.224;2023-04-03T15:57:53;6.00;3.00;2.00
76049;PMS7003;64967;50.234;19.224;2023-04-03T16:00:21;1.75;1.75;1.25
76049;PMS7003;64967;50.234;19.224;2023-04-03T16:02:50;3.00;2.00;2.00
76049;PMS7003;64967;50.234;19.224;2023-04-03T16:05:19;3.00;2.00;2.00
76049;PMS7003;64967;50.234;19.224;2023-04-03T16:07:47;4.00;3.00;2.50
76049;PMS7003;64967;50.234;19.224;2023-04-03T16:10:15;2.00;2.00;1.50
76049;PMS7003;64967;50.234;19.224;2023-04-03T16:12:44;6.00;5.00;4.00
76049;PMS7003;64967;50.234;19.224;2023-04-03T16:15:11;3.50;3.50;3.00
76049;PMS7003;64967;50.234;19.224;2023-04-03T16:17:39;7.00;6.00;5.00
76049;PMS7003;64967;50.234;19.224;2023-04-03T16:20:10;3.50;3.00;3.00
76049;PMS7003;64967;50.234;19.224;2023-04-03T16:22:38;5.75;5.75;5.00
76049;PMS7003;64967;50.234;19.224;2023-04-03T16:25:07;14.75;10.50;6.75